createdAt,value
2022-11-09T00:01:47.627Z,11.20
2022-11-09T00:04:14.270Z,11.10
2022-11-09T00:06:40.892Z,11.10
2022-11-09T00:09:09.637Z,11.10
2022-11-09T00:11:37.908Z,11.10
2022-11-09T00:14:04.573Z,11.20
2022-11-09T00:16:31.306Z,11.20
2022-11-09T00:18:58.671Z,11.20
2022-11-09T00:21:25.769Z,11.20
2022-11-09T00:23:53.097Z,11.20
2022-11-09T00:26:20.663Z,11.20
2022-11-09T00:28:47.688Z,11.20
2022-11-09T00:31:19.981Z,11.20
2022-11-09T00:33:51.333Z,11.20
2022-11-09T00:36:20.402Z,11.20
2022-11-09T00:38:54.951Z,11.20
2022-11-09T00:41:22.238Z,11.20
2022-11-09T00:43:49.666Z,11.20
2022-11-09T00:46:17.193Z,11.20
2022-11-09T00:48:44.547Z,11.20
2022-11-09T00:51:11.720Z,11.10
2022-11-09T00:53:38.330Z,11.10
2022-11-09T00:56:07.727Z,11.20
2022-11-09T00:58:36.272Z,11.10
2022-11-09T01:01:13.755Z,11.10
2022-11-09T01:03:41.700Z,11.10
2022-11-09T01:06:09.185Z,11.00
2022-11-09T01:08:36.357Z,11.10
2022-11-09T01:11:07.736Z,10.80
2022-11-09T01:13:34.874Z,10.80
2022-11-09T01:16:06.156Z,10.70
2022-11-09T01:18:33.458Z,10.80
2022-11-09T01:21:01.840Z,10.80
2022-11-09T01:23:28.450Z,10.80
2022-11-09T01:26:03.974Z,10.60
2022-11-09T01:28:31.243Z,10.70
2022-11-09T01:31:02.494Z,10.70
2022-11-09T01:33:29.119Z,10.70
2022-11-09T01:36:01.196Z,10.70
2022-11-09T01:38:28.939Z,10.80
2022-11-09T01:40:55.523Z,10.80
2022-11-09T01:43:24.095Z,10.70
2022-11-09T01:46:03.081Z,10.80
2022-11-09T01:48:44.134Z,10.90
2022-11-09T01:51:15.944Z,10.80
2022-11-09T01:53:47.401Z,10.60
2022-11-09T01:56:15.459Z,10.70
2022-11-09T01:58:44.446Z,10.80
2022-11-09T02:01:11.677Z,10.70
2022-11-09T02:03:43.957Z,10.70
2022-11-09T02:06:14.394Z,10.70
2022-11-09T02:08:42.718Z,10.70
2022-11-09T02:11:12.181Z,10.70
2022-11-09T02:13:42.574Z,10.80
2022-11-09T02:16:11.626Z,10.80
2022-11-09T02:18:48.635Z,10.90
2022-11-09T02:21:15.256Z,10.80
2022-11-09T02:23:42.011Z,10.80
2022-11-09T02:26:14.236Z,10.80
2022-11-09T02:28:41.672Z,10.90
2022-11-09T02:31:11.771Z,10.90
2022-11-09T02:33:55.951Z,10.90
2022-11-09T02:36:23.777Z,10.90
2022-11-09T02:38:52.688Z,10.90
2022-11-09T02:41:21.277Z,11.00
2022-11-09T02:43:50.761Z,10.90
2022-11-09T02:46:33.257Z,11.00
2022-11-09T02:49:01.409Z,10.90
2022-11-09T02:51:28.300Z,10.80
2022-11-09T02:53:55.058Z,10.90
2022-11-09T02:56:21.885Z,10.80
2022-11-09T02:58:48.786Z,10.90
2022-11-09T03:01:15.635Z,10.90
2022-11-09T03:03:42.280Z,10.80
2022-11-09T03:06:08.920Z,10.90
2022-11-09T03:08:36.586Z,10.90
2022-11-09T03:11:03.475Z,10.90
2022-11-09T03:13:30.081Z,11.00
2022-11-09T03:15:56.690Z,11.00
2022-11-09T03:18:23.317Z,11.10
2022-11-09T03:20:49.906Z,11.10
2022-11-09T03:23:16.668Z,11.00
2022-11-09T03:25:43.383Z,10.90
2022-11-09T03:28:10.009Z,10.70
2022-11-09T03:30:36.676Z,10.70
2022-11-09T03:33:09.853Z,10.70
2022-11-09T03:35:39.666Z,10.70
2022-11-09T03:38:06.563Z,10.80
2022-11-09T03:40:33.215Z,10.90
2022-11-09T03:42:59.832Z,10.90
2022-11-09T03:45:27.966Z,10.90
2022-11-09T03:48:00.080Z,11.00
2022-11-09T03:50:28.880Z,10.90
2022-11-09T03:52:55.918Z,10.90
2022-11-09T03:55:22.662Z,10.90
2022-11-09T03:57:49.405Z,10.90
2022-11-09T04:00:18.702Z,10.90
2022-11-09T04:02:45.573Z,10.90
2022-11-09T04:05:12.420Z,10.90
2022-11-09T04:07:39.634Z,10.90
2022-11-09T04:10:07.384Z,10.70
2022-11-09T04:12:33.995Z,10.60
2022-11-09T04:15:00.642Z,10.60
2022-11-09T04:17:27.259Z,10.50
2022-11-09T04:19:53.892Z,10.20
2022-11-09T04:22:20.477Z,10.10
2022-11-09T04:24:47.073Z,10.10
2022-11-09T04:27:13.788Z,10.10
2022-11-09T04:29:40.379Z,10.10
2022-11-09T04:32:07.522Z,10.10
2022-11-09T04:34:34.191Z,10.10
2022-11-09T04:37:00.914Z,10.10
2022-11-09T04:39:27.501Z,10.20
2022-11-09T04:41:54.122Z,10.20
2022-11-09T04:44:20.725Z,10.30
2022-11-09T04:46:47.332Z,10.30
2022-11-09T04:49:13.972Z,10.30
2022-11-09T04:51:40.627Z,10.20
2022-11-09T04:54:07.323Z,10.20
2022-11-09T04:56:33.910Z,10.20
2022-11-09T04:59:00.577Z,10.20
2022-11-09T05:01:27.204Z,10.10
2022-11-09T05:03:53.973Z,10.10
2022-11-09T05:06:32.867Z,10.30
2022-11-09T05:09:01.642Z,10.10
2022-11-09T05:11:28.757Z,10.10
2022-11-09T05:13:55.491Z,10.10
2022-11-09T05:16:23.056Z,10.00
2022-11-09T05:18:49.981Z,10.00
2022-11-09T05:21:17.567Z,10.00
2022-11-09T05:23:59.323Z,10.00
2022-11-09T05:26:27.835Z,10.00
2022-11-09T05:28:55.162Z,10.00
2022-11-09T05:31:22.143Z,10.10
2022-11-09T05:33:50.328Z,10.20
2022-11-09T05:36:17.646Z,10.20
2022-11-09T05:38:44.851Z,10.30
2022-11-09T05:41:11.610Z,10.30
2022-11-09T05:43:38.232Z,10.40
2022-11-09T05:46:06.724Z,10.40
2022-11-09T05:48:33.791Z,10.30
2022-11-09T05:51:02.624Z,10.30
2022-11-09T05:53:30.070Z,10.40
2022-11-09T05:55:56.910Z,10.40
2022-11-09T05:58:23.568Z,10.30
2022-11-09T06:00:50.281Z,10.40
2022-11-09T06:03:17.074Z,10.60
2022-11-09T06:05:43.834Z,10.50
2022-11-09T06:08:14.828Z,10.40
2022-11-09T06:10:42.442Z,10.50
2022-11-09T06:13:09.570Z,10.70
2022-11-09T06:15:36.256Z,10.60
2022-11-09T06:18:03.010Z,10.60
2022-11-09T06:20:29.912Z,10.70
2022-11-09T06:23:03.825Z,10.70
2022-11-09T06:25:32.442Z,10.70
2022-11-09T06:27:59.458Z,10.70
2022-11-09T06:30:26.256Z,10.80
2022-11-09T06:32:58.862Z,10.90
2022-11-09T06:35:25.762Z,10.90
2022-11-09T06:37:59.989Z,10.80
2022-11-09T06:40:27.135Z,10.80
2022-11-09T06:42:58.099Z,10.90
2022-11-09T06:45:25.545Z,10.90
2022-11-09T06:47:59.171Z,10.90
2022-11-09T06:50:27.499Z,10.90
2022-11-09T06:53:05.958Z,10.90
2022-11-09T06:55:34.330Z,11.00
2022-11-09T06:58:06.735Z,11.00
2022-11-09T07:00:33.694Z,11.00
2022-11-09T07:03:00.327Z,11.00
2022-11-09T07:05:26.971Z,11.00
2022-11-09T07:07:53.579Z,11.00
2022-11-09T07:10:20.382Z,11.10
2022-11-09T07:12:47.179Z,11.00
2022-11-09T07:15:13.978Z,11.10
2022-11-09T07:17:41.293Z,11.10
2022-11-09T07:20:09.097Z,11.10
2022-11-09T07:22:39.362Z,11.10
2022-11-09T07:25:07.558Z,11.10
2022-11-09T07:27:34.656Z,11.10
2022-11-09T07:30:01.505Z,11.10
2022-11-09T07:33:01.967Z,11.10
2022-11-09T07:35:15.102Z,11.20
2022-11-09T07:37:41.768Z,11.20
2022-11-09T07:40:09.081Z,11.20
2022-11-09T07:42:35.721Z,11.20
2022-11-09T07:45:02.426Z,10.90
2022-11-09T07:47:29.055Z,10.70
2022-11-09T07:49:55.745Z,10.70
2022-11-09T07:52:22.482Z,10.80
2022-11-09T07:54:52.136Z,10.90
2022-11-09T07:57:19.335Z,10.90
2022-11-09T07:59:45.982Z,10.90
2022-11-09T08:02:12.984Z,11.00
2022-11-09T08:04:39.809Z,11.10
2022-11-09T08:07:06.731Z,11.20
2022-11-09T08:09:33.413Z,11.20
2022-11-09T08:12:00.128Z,11.20
2022-11-09T08:14:26.868Z,11.30
2022-11-09T08:16:54.811Z,11.40
2022-11-09T08:19:21.490Z,11.30
2022-11-09T08:21:48.295Z,11.30
2022-11-09T08:24:15.092Z,11.40
2022-11-09T08:26:41.746Z,11.40
2022-11-09T08:29:08.430Z,11.40
2022-11-09T08:31:35.126Z,11.50
2022-11-09T08:34:01.766Z,11.40
2022-11-09T08:36:29.801Z,11.40
2022-11-09T08:38:59.162Z,11.40
2022-11-09T08:41:25.897Z,11.30
2022-11-09T08:43:52.560Z,11.20
2022-11-09T08:46:19.247Z,11.10
2022-11-09T08:48:47.260Z,11.00
2022-11-09T08:51:13.870Z,11.00
2022-11-09T08:53:40.513Z,11.00
2022-11-09T08:56:07.914Z,11.00
2022-11-09T08:58:35.904Z,11.10
2022-11-09T09:01:09.938Z,11.10
2022-11-09T09:03:40.514Z,11.20
2022-11-09T09:06:08.574Z,11.40
2022-11-09T09:08:35.624Z,11.40
2022-11-09T09:11:05.841Z,11.30
2022-11-09T09:13:33.361Z,11.30
2022-11-09T09:16:10.469Z,11.30
2022-11-09T09:18:37.542Z,11.40
2022-11-09T09:21:09.386Z,11.50
2022-11-09T09:23:36.427Z,11.50
2022-11-09T09:26:03.449Z,11.60
2022-11-09T09:28:30.259Z,11.70
2022-11-09T09:31:00.956Z,11.70
2022-11-09T09:33:28.107Z,11.70
2022-11-09T09:35:58.887Z,11.70
2022-11-09T09:38:27.423Z,11.80
2022-11-09T09:40:57.297Z,12.00
2022-11-09T09:43:41.416Z,12.10
2022-11-09T09:46:40.471Z,12.10
2022-11-09T09:49:15.533Z,12.20
2022-11-09T09:51:48.670Z,12.20
2022-11-09T09:54:22.359Z,12.20
2022-11-09T09:56:50.991Z,12.30
2022-11-09T09:59:33.179Z,12.40
2022-11-09T10:01:59.833Z,12.40
2022-11-09T10:04:46.939Z,12.50
2022-11-09T10:07:17.248Z,12.50
2022-11-09T10:10:26.699Z,12.70
2022-11-09T10:13:20.760Z,12.70
2022-11-09T10:16:05.849Z,12.70
2022-11-09T10:19:08.399Z,12.80
2022-11-09T10:21:52.596Z,12.80
2022-11-09T10:25:12.207Z,13.00
2022-11-09T10:27:37.113Z,13.10
2022-11-09T10:30:16.784Z,13.20
2022-11-09T10:32:51.308Z,13.30
2022-11-09T10:35:23.606Z,13.30
2022-11-09T10:37:52.387Z,13.40
2022-11-09T10:40:27.907Z,13.50
2022-11-09T10:42:58.064Z,13.50
2022-11-09T10:45:44.536Z,13.50
2022-11-09T10:48:13.292Z,13.50
2022-11-09T10:50:54.087Z,13.60
2022-11-09T10:53:26.627Z,13.50
2022-11-09T10:56:10.123Z,13.60
2022-11-09T10:58:48.795Z,13.60
2022-11-09T11:01:20.144Z,13.70
2022-11-09T11:03:51.035Z,13.70
2022-11-09T11:06:23.465Z,13.80
2022-11-09T11:09:06.371Z,14.00
2022-11-09T11:11:36.689Z,13.90
2022-11-09T11:14:22.500Z,13.90
2022-11-09T11:16:52.966Z,13.90
2022-11-09T11:19:25.908Z,14.00
2022-11-09T11:22:10.961Z,13.90
2022-11-09T11:24:58.351Z,14.00
2022-11-09T11:27:39.188Z,14.10
2022-11-09T11:30:16.248Z,14.00
2022-11-09T11:32:48.968Z,14.10
2022-11-09T11:35:29.351Z,14.20
2022-11-09T11:37:58.858Z,14.20
2022-11-09T11:40:38.313Z,14.30
2022-11-09T11:43:15.926Z,14.40
2022-11-09T11:46:14.226Z,14.50
2022-11-09T11:49:06.810Z,14.50
2022-11-09T11:51:45.342Z,14.50
2022-11-09T11:54:32.717Z,14.60
2022-11-09T11:57:16.925Z,14.60
2022-11-09T12:00:12.899Z,14.50
2022-11-09T12:03:01.744Z,14.60
2022-11-09T12:05:50.837Z,14.70
2022-11-09T12:08:31.632Z,14.70
2022-11-09T12:11:13.422Z,14.70
2022-11-09T12:13:49.941Z,14.80
2022-11-09T12:17:02.031Z,14.80
2022-11-09T12:19:56.188Z,14.90
2022-11-09T12:23:16.059Z,15.00
2022-11-09T12:26:00.922Z,15.00
2022-11-09T12:28:39.345Z,15.10
2022-11-09T12:31:48.403Z,15.10
2022-11-09T12:34:23.706Z,15.00
2022-11-09T12:37:04.853Z,15.00
2022-11-09T12:39:43.551Z,15.10
2022-11-09T12:42:17.560Z,15.20
2022-11-09T12:45:07.848Z,15.30
2022-11-09T12:47:41.397Z,15.20
2022-11-09T12:50:17.605Z,15.20
2022-11-09T12:52:47.243Z,15.30
2022-11-09T12:55:16.395Z,15.30
2022-11-09T12:57:47.028Z,15.40
2022-11-09T13:00:34.005Z,15.40
2022-11-09T13:03:06.863Z,15.50
2022-11-09T13:05:37.606Z,15.50
2022-11-09T13:08:16.074Z,15.50
2022-11-09T13:10:43.315Z,15.50
2022-11-09T13:13:14.925Z,15.50
2022-11-09T13:16:05.823Z,15.40
2022-11-09T13:18:35.760Z,15.40
2022-11-09T13:21:21.112Z,15.50
2022-11-09T13:24:02.995Z,15.40
2022-11-09T13:26:33.443Z,15.30
2022-11-09T13:29:20.902Z,15.30
2022-11-09T13:32:12.184Z,15.30
2022-11-09T13:34:44.701Z,15.40
2022-11-09T13:37:42.390Z,15.30
2022-11-09T13:40:30.977Z,15.40
2022-11-09T13:43:02.319Z,15.50
2022-11-09T13:45:41.975Z,15.50
2022-11-09T13:48:23.814Z,15.40
2022-11-09T13:50:56.762Z,15.40
2022-11-09T13:53:38.547Z,15.40
2022-11-09T13:56:29.667Z,15.40
2022-11-09T13:59:04.346Z,15.40
2022-11-09T14:01:38.475Z,15.40
2022-11-09T14:04:05.493Z,15.40
2022-11-09T14:06:33.154Z,15.40
2022-11-09T14:09:01.095Z,15.50
2022-11-09T14:11:39.880Z,15.50
2022-11-09T14:14:51.830Z,15.50
2022-11-09T14:17:24.697Z,15.40
2022-11-09T14:20:13.393Z,15.40
2022-11-09T14:22:40.478Z,15.40
2022-11-09T14:25:30.951Z,15.40
2022-11-09T14:27:57.713Z,15.40
2022-11-09T14:30:27.480Z,15.40
2022-11-09T14:32:55.488Z,15.40
2022-11-09T14:35:35.298Z,15.40
2022-11-09T14:38:20.156Z,15.40
2022-11-09T14:40:48.894Z,15.50
2022-11-09T14:43:21.384Z,15.40
2022-11-09T14:45:51.146Z,15.40
2022-11-09T14:48:23.304Z,15.40
2022-11-09T14:50:53.072Z,15.30
2022-11-09T14:53:28.440Z,15.30
2022-11-09T14:55:58.184Z,15.30
2022-11-09T14:58:25.735Z,15.20
2022-11-09T15:01:07.666Z,15.20
2022-11-09T15:03:34.387Z,15.20
2022-11-09T15:06:10.454Z,15.20
2022-11-09T15:08:40.305Z,15.10
2022-11-09T15:11:07.321Z,15.10
2022-11-09T15:13:40.146Z,15.10
2022-11-09T15:16:07.759Z,15.10
2022-11-09T15:18:41.661Z,15.10
2022-11-09T15:21:32.635Z,15.00
2022-11-09T15:24:08.704Z,14.90
2022-11-09T15:26:44.534Z,14.90
2022-11-09T15:29:37.634Z,14.90
2022-11-09T15:32:15.242Z,14.90
2022-11-09T15:35:02.214Z,14.90
2022-11-09T15:37:48.974Z,14.90
2022-11-09T15:40:19.135Z,14.90
2022-11-09T15:42:46.529Z,14.90
2022-11-09T15:45:19.831Z,14.80
2022-11-09T15:47:53.117Z,14.80
2022-11-09T15:50:23.459Z,14.80
2022-11-09T15:52:50.733Z,14.70
2022-11-09T15:55:23.832Z,14.70
2022-11-09T15:57:52.578Z,14.70
2022-11-09T16:00:22.300Z,14.60
2022-11-09T16:02:49.444Z,14.60
2022-11-09T16:05:16.443Z,14.50
2022-11-09T16:07:54.456Z,14.50
2022-11-09T16:10:30.393Z,14.50
2022-11-09T16:12:57.713Z,14.50
2022-11-09T16:15:25.224Z,14.50
2022-11-09T16:17:52.795Z,14.50
2022-11-09T16:20:20.614Z,14.50
2022-11-09T16:22:48.035Z,14.50
2022-11-09T16:25:15.511Z,14.50
2022-11-09T16:27:50.098Z,14.40
2022-11-09T16:30:19.355Z,14.40
2022-11-09T16:32:46.131Z,14.30
2022-11-09T16:35:26.655Z,14.30
2022-11-09T16:37:59.673Z,14.50
2022-11-09T16:40:27.681Z,14.60
2022-11-09T16:42:54.859Z,14.70
2022-11-09T16:45:25.156Z,14.70
2022-11-09T16:47:58.088Z,14.60
2022-11-09T16:50:24.812Z,14.80
2022-11-09T16:52:51.735Z,14.80
2022-11-09T16:55:18.496Z,14.90
2022-11-09T16:57:46.141Z,14.90
2022-11-09T17:00:13.682Z,14.90
2022-11-09T17:02:40.331Z,14.70
2022-11-09T17:05:07.510Z,14.80
2022-11-09T17:07:42.109Z,14.70
2022-11-09T17:10:11.026Z,14.50
2022-11-09T17:12:37.711Z,14.40
2022-11-09T17:15:04.568Z,14.40
2022-11-09T17:17:31.327Z,14.20
2022-11-09T17:19:58.036Z,14.10
2022-11-09T17:22:24.878Z,13.90
2022-11-09T17:24:51.485Z,14.00
2022-11-09T17:27:18.173Z,14.20
2022-11-09T17:29:47.944Z,14.20
2022-11-09T17:32:14.706Z,14.50
2022-11-09T17:34:41.479Z,14.50
2022-11-09T17:37:08.201Z,14.30
2022-11-09T17:39:35.001Z,14.20
2022-11-09T17:42:01.642Z,14.00
2022-11-09T17:44:28.325Z,14.20
2022-11-09T17:46:55.007Z,14.20
2022-11-09T17:49:21.714Z,14.40
2022-11-09T17:51:48.323Z,14.10
2022-11-09T17:54:15.213Z,14.30
2022-11-09T17:56:42.062Z,14.30
2022-11-09T17:59:09.197Z,14.20
2022-11-09T18:01:41.136Z,14.30
2022-11-09T18:04:09.932Z,14.50
2022-11-09T18:06:36.863Z,14.50
2022-11-09T18:09:39.240Z,14.50
2022-11-09T18:11:50.744Z,14.40
2022-11-09T18:14:17.393Z,14.40
2022-11-09T18:16:45.147Z,14.40
2022-11-09T18:19:12.011Z,14.40
2022-11-09T18:21:38.706Z,14.50
2022-11-09T18:24:06.026Z,14.60
2022-11-09T18:26:32.919Z,14.60
2022-11-09T18:29:00.324Z,14.60
2022-11-09T18:31:27.123Z,14.60
2022-11-09T18:33:53.925Z,14.70
2022-11-09T18:36:21.487Z,14.70
2022-11-09T18:38:51.019Z,14.70
2022-11-09T18:41:21.753Z,14.70
2022-11-09T18:43:49.754Z,14.60
2022-11-09T18:46:18.852Z,14.70
2022-11-09T18:48:49.578Z,14.70
2022-11-09T18:51:16.513Z,14.70
2022-11-09T18:53:45.011Z,14.60
2022-11-09T18:56:21.698Z,14.60
2022-11-09T18:58:49.988Z,14.70
2022-11-09T19:01:16.805Z,14.50
2022-11-09T19:03:43.804Z,14.50
2022-11-09T19:06:16.322Z,14.50
2022-11-09T19:09:02.367Z,14.50
2022-11-09T19:11:30.138Z,14.40
2022-11-09T19:13:57.531Z,14.40
2022-11-09T19:16:25.202Z,14.30
2022-11-09T19:18:52.182Z,14.40
2022-11-09T19:21:40.035Z,14.40
2022-11-09T19:24:08.201Z,14.50
2022-11-09T19:26:35.380Z,14.30
2022-11-09T19:29:02.284Z,14.30
2022-11-09T19:31:29.690Z,14.30
2022-11-09T19:33:56.864Z,14.30
2022-11-09T19:36:30.700Z,14.30
2022-11-09T19:38:58.212Z,14.30
2022-11-09T19:41:25.826Z,14.40
2022-11-09T19:43:55.799Z,14.30
2022-11-09T19:46:22.837Z,14.40
2022-11-09T19:48:49.672Z,14.40
2022-11-09T19:51:17.532Z,14.40
2022-11-09T19:53:55.662Z,14.40
2022-11-09T19:56:24.969Z,14.40
2022-11-09T19:58:53.784Z,14.30
2022-11-09T20:01:20.835Z,14.30
2022-11-09T20:03:52.404Z,14.30
2022-11-09T20:06:20.035Z,14.30
2022-11-09T20:08:47.807Z,14.20
2022-11-09T20:11:37.882Z,14.20
2022-11-09T20:14:05.445Z,14.20
2022-11-09T20:16:34.623Z,14.20
2022-11-09T20:19:02.944Z,14.10
2022-11-09T20:21:29.637Z,14.10
2022-11-09T20:23:56.955Z,14.10
2022-11-09T20:26:23.784Z,14.10
2022-11-09T20:28:53.229Z,14.10
2022-11-09T20:31:20.842Z,14.10
2022-11-09T20:33:48.058Z,14.10
2022-11-09T20:36:15.131Z,14.10
2022-11-09T20:38:42.675Z,14.00
2022-11-09T20:41:11.448Z,14.00
2022-11-09T20:43:39.073Z,14.00
2022-11-09T20:46:16.113Z,13.80
2022-11-09T20:48:54.477Z,13.70
2022-11-09T20:51:23.580Z,13.70
2022-11-09T20:53:50.674Z,13.80
2022-11-09T20:56:18.842Z,13.80
2022-11-09T20:58:46.259Z,13.80
2022-11-09T21:01:13.172Z,13.90
2022-11-09T21:03:40.196Z,13.80
2022-11-09T21:06:08.510Z,13.90
2022-11-09T21:08:35.777Z,13.90
2022-11-09T21:11:05.030Z,13.90
2022-11-09T21:13:32.834Z,13.90
2022-11-09T21:16:14.216Z,13.90
2022-11-09T21:18:41.833Z,13.90
2022-11-09T21:21:35.070Z,13.80
2022-11-09T21:24:21.510Z,13.90
2022-11-09T21:27:06.995Z,13.90
2022-11-09T21:29:52.070Z,13.90
2022-11-09T21:32:20.691Z,13.90
2022-11-09T21:34:48.150Z,13.80
2022-11-09T21:37:18.780Z,13.80
2022-11-09T21:39:45.493Z,13.80
2022-11-09T21:42:12.140Z,13.90
2022-11-09T21:44:39.654Z,13.80
2022-11-09T21:47:07.539Z,13.80
2022-11-09T21:49:34.544Z,13.80
2022-11-09T21:52:01.577Z,13.80
2022-11-09T21:54:28.465Z,13.80
2022-11-09T21:56:55.750Z,13.80
2022-11-09T21:59:22.711Z,13.70
2022-11-09T22:01:49.653Z,13.70
2022-11-09T22:04:16.651Z,13.60
2022-11-09T22:06:43.792Z,13.60
2022-11-09T22:09:16.571Z,13.70
2022-11-09T22:12:02.432Z,13.70
2022-11-09T22:14:47.791Z,13.70
2022-11-09T22:17:14.877Z,13.70
2022-11-09T22:19:59.922Z,13.70
2022-11-09T22:22:30.825Z,13.70
2022-11-09T22:24:57.918Z,13.70
2022-11-09T22:27:24.694Z,13.70
2022-11-09T22:29:51.432Z,13.70
2022-11-09T22:32:18.094Z,13.60
2022-11-09T22:34:45.103Z,13.60
2022-11-09T22:37:11.880Z,13.50
2022-11-09T22:39:41.784Z,13.50
2022-11-09T22:42:12.652Z,13.50
2022-11-09T22:44:39.258Z,13.50
2022-11-09T22:47:05.972Z,13.50
2022-11-09T22:49:32.746Z,13.50
2022-11-09T22:51:59.371Z,13.50
2022-11-09T22:54:25.982Z,13.50
2022-11-09T22:56:52.601Z,13.50
2022-11-09T22:59:19.748Z,13.40
2022-11-09T23:01:46.441Z,13.50
2022-11-09T23:04:13.219Z,13.40
2022-11-09T23:06:39.910Z,13.40
2022-11-09T23:09:06.912Z,13.40
2022-11-09T23:11:33.531Z,13.40
2022-11-09T23:14:00.199Z,13.40
2022-11-09T23:16:27.078Z,13.40
2022-11-09T23:18:54.074Z,13.40
2022-11-09T23:21:21.785Z,13.40
2022-11-09T23:23:49.276Z,13.40
2022-11-09T23:26:16.577Z,13.40
2022-11-09T23:28:43.470Z,13.40
2022-11-09T23:31:12.846Z,13.30
2022-11-09T23:33:39.980Z,13.30
2022-11-09T23:36:08.156Z,13.30
2022-11-09T23:38:37.158Z,13.20
2022-11-09T23:41:05.193Z,13.20
2022-11-09T23:43:31.839Z,13.10
2022-11-09T23:46:07.498Z,13.00
2022-11-09T23:48:35.155Z,13.10
2022-11-09T23:51:03.124Z,13.10
2022-11-09T23:53:31.342Z,13.10
2022-11-09T23:56:07.265Z,13.10
2022-11-09T23:58:34.132Z,13.10
